sensor_id;sensor_type;location;lat;lon;timestamp;P1;durP1;ratioP1;P2;durP2;ratioP2
68800;SDS011;55784;50.734;7.086;2023-06-14T00:00:35;12.10;;;5.57;;
68800;SDS011;55784;50.734;7.086;2023-06-14T00:03:01;11.03;;;5.70;;
68800;SDS011;55784;50.734;7.086;2023-06-14T00:05:28;10.20;;;5.35;;
68800;SDS011;55784;50.734;7.086;2023-06-14T00:07:54;11.27;;;5.57;;
68800;SDS011;55784;50.734;7.086;2023-06-14T00:10:20;10.53;;;5.67;;
68800;SDS011;55784;50.734;7.086;2023-06-14T00:12:45;10.10;;;5.37;;
68800;SDS011;55784;50.734;7.086;2023-06-14T00:15:11;9.60;;;5.23;;
68800;SDS011;55784;50.734;7.086;2023-06-14T00:17:36;9.80;;;5.35;;
68800;SDS011;55784;50.734;7.086;2023-06-14T00:20:04;9.60;;;5.30;;
68800;SDS011;55784;50.734;7.086;2023-06-14T00:22:32;11.23;;;5.80;;
68800;SDS011;55784;50.734;7.086;2023-06-14T00:24:58;10.27;;;5.38;;
68800;SDS011;55784;50.734;7.086;2023-06-14T00:27:24;9.10;;;5.43;;
68800;SDS011;55784;50.734;7.086;2023-06-14T00:29:49;9.63;;;5.30;;
68800;SDS011;55784;50.734;7.086;2023-06-14T00:32:15;9.43;;;5.30;;
68800;SDS011;55784;50.734;7.086;2023-06-14T00:34:40;11.97;;;5.20;;
68800;SDS011;55784;50.734;7.086;2023-06-14T00:37:06;10.27;;;5.60;;
68800;SDS011;55784;50.734;7.086;2023-06-14T00:39:31;9.73;;;5.40;;
68800;SDS011;55784;50.734;7.086;2023-06-14T00:41:56;10.35;;;5.20;;
68800;SDS011;55784;50.734;7.086;2023-06-14T00:44:22;9.83;;;5.40;;
68800;SDS011;55784;50.734;7.086;2023-06-14T00:46:48;10.68;;;5.88;;
68800;SDS011;55784;50.734;7.086;2023-06-14T00:49:14;9.60;;;5.18;;
68800;SDS011;55784;50.734;7.086;2023-06-14T00:51:41;9.98;;;5.60;;
68800;SDS011;55784;50.734;7.086;2023-06-14T00:54:07;10.63;;;5.53;;
68800;SDS011;55784;50.734;7.086;2023-06-14T00:56:33;9.80;;;5.90;;
68800;SDS011;55784;50.734;7.086;2023-06-14T00:59:00;10.38;;;5.53;;
68800;SDS011;55784;50.734;7.086;2023-06-14T01:01:26;10.47;;;5.80;;
68800;SDS011;55784;50.734;7.086;2023-06-14T01:03:53;10.07;;;5.75;;
68800;SDS011;55784;50.734;7.086;2023-06-14T01:06:21;10.33;;;5.67;;
68800;SDS011;55784;50.734;7.086;2023-06-14T01:09:01;10.38;;;5.85;;
68800;SDS011;55784;50.734;7.086;2023-06-14T01:11:32;10.38;;;5.90;;
68800;SDS011;55784;50.734;7.086;2023-06-14T01:14:05;11.32;;;5.72;;
68800;SDS011;55784;50.734;7.086;2023-06-14T01:16:32;13.80;;;5.60;;
68800;SDS011;55784;50.734;7.086;2023-06-14T01:19:01;11.48;;;5.55;;
68800;SDS011;55784;50.734;7.086;2023-06-14T01:21:27;9.55;;;5.60;;
68800;SDS011;55784;50.734;7.086;2023-06-14T01:23:53;10.32;;;5.93;;
68800;SDS011;55784;50.734;7.086;2023-06-14T01:26:20;11.98;;;6.00;;
68800;SDS011;55784;50.734;7.086;2023-06-14T01:28:46;11.20;;;5.90;;
68800;SDS011;55784;50.734;7.086;2023-06-14T01:31:16;9.55;;;5.65;;
68800;SDS011;55784;50.734;7.086;2023-06-14T01:33:44;10.68;;;5.60;;
68800;SDS011;55784;50.734;7.086;2023-06-14T01:36:11;10.50;;;5.60;;
68800;SDS011;55784;50.734;7.086;2023-06-14T01:38:37;11.52;;;5.70;;
68800;SDS011;55784;50.734;7.086;2023-06-14T01:41:04;10.53;;;5.83;;
68800;SDS011;55784;50.734;7.086;2023-06-14T01:43:29;9.55;;;5.43;;
68800;SDS011;55784;50.734;7.086;2023-06-14T01:45:56;10.35;;;6.32;;
68800;SDS011;55784;50.734;7.086;2023-06-14T01:48:22;10.83;;;6.03;;
68800;SDS011;55784;50.734;7.086;2023-06-14T01:50:48;10.95;;;5.95;;
68800;SDS011;55784;50.734;7.086;2023-06-14T01:53:15;11.20;;;5.90;;
68800;SDS011;55784;50.734;7.086;2023-06-14T01:55:40;10.30;;;5.80;;
68800;SDS011;55784;50.734;7.086;2023-06-14T01:58:09;10.50;;;6.10;;
68800;SDS011;55784;50.734;7.086;2023-06-14T02:00:35;11.80;;;6.10;;
68800;SDS011;55784;50.734;7.086;2023-06-14T02:03:00;11.67;;;5.73;;
68800;SDS011;55784;50.734;7.086;2023-06-14T02:05:27;10.48;;;5.53;;
68800;SDS011;55784;50.734;7.086;2023-06-14T02:07:52;10.47;;;5.67;;
68800;SDS011;55784;50.734;7.086;2023-06-14T02:10:20;11.10;;;5.72;;
68800;SDS011;55784;50.734;7.086;2023-06-14T02:12:46;9.93;;;5.57;;
68800;SDS011;55784;50.734;7.086;2023-06-14T02:15:11;10.07;;;5.30;;
68800;SDS011;55784;50.734;7.086;2023-06-14T02:17:44;9.27;;;5.28;;
68800;SDS011;55784;50.734;7.086;2023-06-14T02:20:10;9.60;;;5.20;;
68800;SDS011;55784;50.734;7.086;2023-06-14T02:22:36;10.07;;;5.70;;
68800;SDS011;55784;50.734;7.086;2023-06-14T02:25:01;13.90;;;5.80;;
68800;SDS011;55784;50.734;7.086;2023-06-14T02:27:27;11.70;;;5.88;;
68800;SDS011;55784;50.734;7.086;2023-06-14T02:29:53;10.83;;;5.60;;
68800;SDS011;55784;50.734;7.086;2023-06-14T02:32:18;9.63;;;5.67;;
68800;SDS011;55784;50.734;7.086;2023-06-14T02:34:43;10.90;;;5.67;;
68800;SDS011;55784;50.734;7.086;2023-06-14T02:37:09;10.70;;;5.40;;
68800;SDS011;55784;50.734;7.086;2023-06-14T02:39:34;9.53;;;5.40;;
68800;SDS011;55784;50.734;7.086;2023-06-14T02:42:00;11.83;;;5.60;;
68800;SDS011;55784;50.734;7.086;2023-06-14T02:44:26;10.73;;;5.33;;
68800;SDS011;55784;50.734;7.086;2023-06-14T02:46:52;9.93;;;5.45;;
68800;SDS011;55784;50.734;7.086;2023-06-14T02:49:18;9.85;;;5.45;;
68800;SDS011;55784;50.734;7.086;2023-06-14T02:51:43;9.77;;;5.50;;
68800;SDS011;55784;50.734;7.086;2023-06-14T02:54:09;10.50;;;5.83;;
68800;SDS011;55784;50.734;7.086;2023-06-14T02:56:35;9.80;;;5.72;;
68800;SDS011;55784;50.734;7.086;2023-06-14T02:59:00;10.47;;;5.60;;
68800;SDS011;55784;50.734;7.086;2023-06-14T03:01:26;10.15;;;5.40;;
68800;SDS011;55784;50.734;7.086;2023-06-14T03:04:02;10.98;;;5.72;;
68800;SDS011;55784;50.734;7.086;2023-06-14T03:06:28;9.60;;;5.60;;
68800;SDS011;55784;50.734;7.086;2023-06-14T03:08:55;11.88;;;5.88;;
68800;SDS011;55784;50.734;7.086;2023-06-14T03:11:22;10.95;;;5.30;;
68800;SDS011;55784;50.734;7.086;2023-06-14T03:13:47;10.87;;;6.17;;
68800;SDS011;55784;50.734;7.086;2023-06-14T03:16:12;10.43;;;5.40;;
68800;SDS011;55784;50.734;7.086;2023-06-14T03:18:38;11.97;;;5.67;;
68800;SDS011;55784;50.734;7.086;2023-06-14T03:21:03;10.73;;;5.80;;
68800;SDS011;55784;50.734;7.086;2023-06-14T03:23:28;11.88;;;5.60;;
68800;SDS011;55784;50.734;7.086;2023-06-14T03:25:54;10.37;;;5.87;;
68800;SDS011;55784;50.734;7.086;2023-06-14T03:28:19;10.67;;;5.53;;
68800;SDS011;55784;50.734;7.086;2023-06-14T03:30:45;10.50;;;5.67;;
68800;SDS011;55784;50.734;7.086;2023-06-14T03:33:10;10.63;;;5.80;;
68800;SDS011;55784;50.734;7.086;2023-06-14T03:35:35;11.23;;;6.03;;
68800;SDS011;55784;50.734;7.086;2023-06-14T03:38:01;11.00;;;5.83;;
68800;SDS011;55784;50.734;7.086;2023-06-14T03:40:27;9.95;;;5.60;;
68800;SDS011;55784;50.734;7.086;2023-06-14T03:42:53;10.60;;;5.83;;
68800;SDS011;55784;50.734;7.086;2023-06-14T03:45:19;10.88;;;5.60;;
68800;SDS011;55784;50.734;7.086;2023-06-14T03:47:44;9.90;;;5.70;;
68800;SDS011;55784;50.734;7.086;2023-06-14T03:50:09;10.40;;;5.60;;
68800;SDS011;55784;50.734;7.086;2023-06-14T03:52:35;12.02;;;6.13;;
68800;SDS011;55784;50.734;7.086;2023-06-14T03:55:01;9.57;;;5.45;;
68800;SDS011;55784;50.734;7.086;2023-06-14T03:57:27;11.47;;;5.70;;
68800;SDS011;55784;50.734;7.086;2023-06-14T03:59:54;10.75;;;5.57;;
68800;SDS011;55784;50.734;7.086;2023-06-14T04:02:19;11.67;;;6.00;;
68800;SDS011;55784;50.734;7.086;2023-06-14T04:04:45;9.73;;;5.17;;
68800;SDS011;55784;50.734;7.086;2023-06-14T04:07:13;10.25;;;5.35;;
68800;SDS011;55784;50.734;7.086;2023-06-14T04:09:40;10.47;;;5.80;;
68800;SDS011;55784;50.734;7.086;2023-06-14T04:12:06;10.20;;;5.20;;
68800;SDS011;55784;50.734;7.086;2023-06-14T04:14:33;11.45;;;5.80;;
68800;SDS011;55784;50.734;7.086;2023-06-14T04:16:59;11.90;;;5.50;;
68800;SDS011;55784;50.734;7.086;2023-06-14T04:19:25;10.98;;;5.35;;
68800;SDS011;55784;50.734;7.086;2023-06-14T04:21:50;12.67;;;5.70;;
68800;SDS011;55784;50.734;7.086;2023-06-14T04:24:15;10.60;;;5.47;;
68800;SDS011;55784;50.734;7.086;2023-06-14T04:26:44;9.82;;;5.75;;
68800;SDS011;55784;50.734;7.086;2023-06-14T04:29:11;11.40;;;5.40;;
68800;SDS011;55784;50.734;7.086;2023-06-14T04:31:39;9.80;;;5.68;;
68800;SDS011;55784;50.734;7.086;2023-06-14T04:34:05;12.57;;;5.80;;
68800;SDS011;55784;50.734;7.086;2023-06-14T04:36:34;10.25;;;5.60;;
68800;SDS011;55784;50.734;7.086;2023-06-14T04:39:02;10.20;;;5.90;;
68800;SDS011;55784;50.734;7.086;2023-06-14T04:41:31;12.63;;;6.03;;
68800;SDS011;55784;50.734;7.086;2023-06-14T04:44:00;11.85;;;6.30;;
68800;SDS011;55784;50.734;7.086;2023-06-14T04:46:27;10.73;;;6.20;;
68800;SDS011;55784;50.734;7.086;2023-06-14T04:48:53;12.23;;;6.03;;
68800;SDS011;55784;50.734;7.086;2023-06-14T04:51:19;10.65;;;5.82;;
68800;SDS011;55784;50.734;7.086;2023-06-14T04:53:47;10.93;;;5.82;;
68800;SDS011;55784;50.734;7.086;2023-06-14T04:56:14;9.23;;;5.43;;
68800;SDS011;55784;50.734;7.086;2023-06-14T04:58:40;9.77;;;5.10;;
68800;SDS011;55784;50.734;7.086;2023-06-14T05:01:05;12.20;;;5.43;;
68800;SDS011;55784;50.734;7.086;2023-06-14T05:03:30;12.43;;;5.30;;
68800;SDS011;55784;50.734;7.086;2023-06-14T05:05:56;8.30;;;4.80;;
68800;SDS011;55784;50.734;7.086;2023-06-14T05:08:22;9.77;;;5.00;;
68800;SDS011;55784;50.734;7.086;2023-06-14T05:10:48;10.85;;;4.85;;
68800;SDS011;55784;50.734;7.086;2023-06-14T05:13:14;10.83;;;5.13;;
68800;SDS011;55784;50.734;7.086;2023-06-14T05:15:39;9.20;;;4.75;;
68800;SDS011;55784;50.734;7.086;2023-06-14T05:18:04;10.73;;;4.77;;
68800;SDS011;55784;50.734;7.086;2023-06-14T05:20:30;9.47;;;5.00;;
68800;SDS011;55784;50.734;7.086;2023-06-14T05:22:55;12.07;;;4.50;;
68800;SDS011;55784;50.734;7.086;2023-06-14T05:25:21;10.02;;;4.38;;
68800;SDS011;55784;50.734;7.086;2023-06-14T05:27:47;10.23;;;4.80;;
68800;SDS011;55784;50.734;7.086;2023-06-14T05:30:13;10.25;;;4.78;;
68800;SDS011;55784;50.734;7.086;2023-06-14T05:32:40;9.15;;;4.50;;
68800;SDS011;55784;50.734;7.086;2023-06-14T05:35:05;9.77;;;4.70;;
68800;SDS011;55784;50.734;7.086;2023-06-14T05:37:31;8.68;;;4.78;;
68800;SDS011;55784;50.734;7.086;2023-06-14T05:39:57;9.67;;;4.33;;
68800;SDS011;55784;50.734;7.086;2023-06-14T05:42:22;9.20;;;4.63;;
68800;SDS011;55784;50.734;7.086;2023-06-14T05:44:48;11.48;;;5.78;;
68800;SDS011;55784;50.734;7.086;2023-06-14T05:47:13;10.70;;;5.63;;
68800;SDS011;55784;50.734;7.086;2023-06-14T05:53:02;9.35;;;4.43;;
68800;SDS011;55784;50.734;7.086;2023-06-14T05:55:27;8.40;;;5.50;;
68800;SDS011;55784;50.734;7.086;2023-06-14T05:58:10;7.50;;;4.30;;
68800;SDS011;55784;50.734;7.086;2023-06-14T06:00:55;10.30;;;4.20;;
68800;SDS011;55784;50.734;7.086;2023-06-14T06:26:46;8.85;;;4.15;;
68800;SDS011;55784;50.734;7.086;2023-06-14T06:42:14;8.57;;;3.80;;
68800;SDS011;55784;50.734;7.086;2023-06-14T06:48:38;9.00;;;3.70;;
68800;SDS011;55784;50.734;7.086;2023-06-14T06:51:25;8.27;;;3.80;;
68800;SDS011;55784;50.734;7.086;2023-06-14T06:54:32;7.15;;;3.75;;
68800;SDS011;55784;50.734;7.086;2023-06-14T07:06:54;7.30;;;3.30;;
68800;SDS011;55784;50.734;7.086;2023-06-14T07:09:43;8.60;;;3.28;;
68800;SDS011;55784;50.734;7.086;2023-06-14T07:12:23;9.38;;;3.35;;
68800;SDS011;55784;50.734;7.086;2023-06-14T07:14:48;13.03;;;3.87;;
68800;SDS011;55784;50.734;7.086;2023-06-14T07:17:13;8.02;;;3.10;;
68800;SDS011;55784;50.734;7.086;2023-06-14T07:19:39;9.27;;;3.20;;
68800;SDS011;55784;50.734;7.086;2023-06-14T07:22:04;7.83;;;3.20;;
68800;SDS011;55784;50.734;7.086;2023-06-14T07:24:30;11.00;;;3.70;;
68800;SDS011;55784;50.734;7.086;2023-06-14T07:26:55;6.13;;;3.20;;
68800;SDS011;55784;50.734;7.086;2023-06-14T07:29:21;7.20;;;3.08;;
68800;SDS011;55784;50.734;7.086;2023-06-14T07:31:46;7.37;;;3.37;;
68800;SDS011;55784;50.734;7.086;2023-06-14T07:34:12;9.53;;;3.57;;
68800;SDS011;55784;50.734;7.086;2023-06-14T07:36:37;6.47;;;3.00;;
68800;SDS011;55784;50.734;7.086;2023-06-14T07:39:03;7.07;;;3.10;;
68800;SDS011;55784;50.734;7.086;2023-06-14T07:41:30;6.80;;;2.90;;
68800;SDS011;55784;50.734;7.086;2023-06-14T07:43:56;6.93;;;2.70;;
68800;SDS011;55784;50.734;7.086;2023-06-14T07:46:21;7.43;;;2.50;;
68800;SDS011;55784;50.734;7.086;2023-06-14T07:48:47;7.80;;;2.53;;
68800;SDS011;55784;50.734;7.086;2023-06-14T07:51:13;5.33;;;2.10;;
68800;SDS011;55784;50.734;7.086;2023-06-14T07:53:38;6.07;;;2.22;;
68800;SDS011;55784;50.734;7.086;2023-06-14T07:56:03;6.87;;;2.43;;
68800;SDS011;55784;50.734;7.086;2023-06-14T07:58:29;7.13;;;1.97;;
68800;SDS011;55784;50.734;7.086;2023-06-14T08:00:54;7.57;;;2.40;;
68800;SDS011;55784;50.734;7.086;2023-06-14T08:03:20;6.10;;;2.30;;
68800;SDS011;55784;50.734;7.086;2023-06-14T08:05:47;9.73;;;2.60;;
68800;SDS011;55784;50.734;7.086;2023-06-14T08:08:12;5.70;;;2.20;;
68800;SDS011;55784;50.734;7.086;2023-06-14T08:10:38;6.33;;;2.37;;
68800;SDS011;55784;50.734;7.086;2023-06-14T08:13:03;9.20;;;2.50;;
68800;SDS011;55784;50.734;7.086;2023-06-14T08:15:29;7.70;;;2.50;;
68800;SDS011;55784;50.734;7.086;2023-06-14T08:17:54;6.33;;;2.10;;
68800;SDS011;55784;50.734;7.086;2023-06-14T08:20:19;6.93;;;2.20;;
68800;SDS011;55784;50.734;7.086;2023-06-14T08:22:45;6.80;;;2.40;;
68800;SDS011;55784;50.734;7.086;2023-06-14T08:25:12;5.82;;;2.28;;
68800;SDS011;55784;50.734;7.086;2023-06-14T08:27:37;5.63;;;2.10;;
68800;SDS011;55784;50.734;7.086;2023-06-14T08:30:02;6.67;;;2.13;;
68800;SDS011;55784;50.734;7.086;2023-06-14T08:32:28;6.70;;;2.00;;
68800;SDS011;55784;50.734;7.086;2023-06-14T08:34:53;6.83;;;2.20;;
68800;SDS011;55784;50.734;7.086;2023-06-14T08:37:19;6.27;;;2.23;;
68800;SDS011;55784;50.734;7.086;2023-06-14T08:39:45;5.50;;;2.00;;
68800;SDS011;55784;50.734;7.086;2023-06-14T08:42:11;5.18;;;1.80;;
68800;SDS011;55784;50.734;7.086;2023-06-14T08:44:39;5.87;;;2.17;;
68800;SDS011;55784;50.734;7.086;2023-06-14T08:47:04;7.10;;;1.83;;
68800;SDS011;55784;50.734;7.086;2023-06-14T08:49:32;6.07;;;1.90;;
68800;SDS011;55784;50.734;7.086;2023-06-14T08:51:58;13.57;;;5.93;;
68800;SDS011;55784;50.734;7.086;2023-06-14T08:54:27;6.72;;;2.20;;
68800;SDS011;55784;50.734;7.086;2023-06-14T08:56:55;5.40;;;1.90;;
68800;SDS011;55784;50.734;7.086;2023-06-14T08:59:27;6.13;;;1.97;;
68800;SDS011;55784;50.734;7.086;2023-06-14T09:01:53;7.25;;;1.90;;
68800;SDS011;55784;50.734;7.086;2023-06-14T09:04:22;7.00;;;2.00;;
68800;SDS011;55784;50.734;7.086;2023-06-14T09:06:47;5.63;;;1.83;;
68800;SDS011;55784;50.734;7.086;2023-06-14T09:09:23;5.50;;;1.98;;
68800;SDS011;55784;50.734;7.086;2023-06-14T09:11:52;6.75;;;1.80;;
68800;SDS011;55784;50.734;7.086;2023-06-14T09:14:18;6.47;;;2.10;;
68800;SDS011;55784;50.734;7.086;2023-06-14T09:16:43;5.30;;;1.93;;
68800;SDS011;55784;50.734;7.086;2023-06-14T09:19:10;8.50;;;2.08;;
68800;SDS011;55784;50.734;7.086;2023-06-14T09:21:47;7.32;;;2.00;;
68800;SDS011;55784;50.734;7.086;2023-06-14T09:24:13;5.78;;;1.98;;
68800;SDS011;55784;50.734;7.086;2023-06-14T09:26:39;5.83;;;1.87;;
68800;SDS011;55784;50.734;7.086;2023-06-14T09:29:05;5.03;;;1.80;;
68800;SDS011;55784;50.734;7.086;2023-06-14T09:31:31;6.10;;;1.80;;
68800;SDS011;55784;50.734;7.086;2023-06-14T09:33:57;6.30;;;2.00;;
68800;SDS011;55784;50.734;7.086;2023-06-14T09:36:27;5.50;;;1.60;;
68800;SDS011;55784;50.734;7.086;2023-06-14T09:39:02;5.47;;;1.60;;
68800;SDS011;55784;50.734;7.086;2023-06-14T09:41:32;5.50;;;1.60;;
68800;SDS011;55784;50.734;7.086;2023-06-14T09:43:59;5.82;;;1.90;;
68800;SDS011;55784;50.734;7.086;2023-06-14T09:46:26;5.72;;;1.70;;
68800;SDS011;55784;50.734;7.086;2023-06-14T09:48:52;6.97;;;1.65;;
68800;SDS011;55784;50.734;7.086;2023-06-14T09:51:20;5.67;;;1.60;;
68800;SDS011;55784;50.734;7.086;2023-06-14T09:53:59;5.65;;;1.60;;
68800;SDS011;55784;50.734;7.086;2023-06-14T09:56:34;6.00;;;1.80;;
68800;SDS011;55784;50.734;7.086;2023-06-14T09:59:06;5.22;;;1.55;;
68800;SDS011;55784;50.734;7.086;2023-06-14T10:01:35;5.53;;;1.60;;
68800;SDS011;55784;50.734;7.086;2023-06-14T10:04:06;4.82;;;1.67;;
68800;SDS011;55784;50.734;7.086;2023-06-14T10:06:35;6.15;;;1.70;;
68800;SDS011;55784;50.734;7.086;2023-06-14T10:09:07;6.10;;;2.10;;
68800;SDS011;55784;50.734;7.086;2023-06-14T10:11:34;4.95;;;1.73;;
68800;SDS011;55784;50.734;7.086;2023-06-14T10:14:01;4.60;;;1.53;;
68800;SDS011;55784;50.734;7.086;2023-06-14T10:24:18;10.27;;;3.65;;
68800;SDS011;55784;50.734;7.086;2023-06-14T10:26:53;4.97;;;1.70;;
68800;SDS011;55784;50.734;7.086;2023-06-14T10:29:19;7.18;;;2.58;;
68800;SDS011;55784;50.734;7.086;2023-06-14T10:31:45;5.43;;;1.60;;
68800;SDS011;55784;50.734;7.086;2023-06-14T10:34:12;6.25;;;2.00;;
68800;SDS011;55784;50.734;7.086;2023-06-14T10:37:06;5.30;;;1.73;;
68800;SDS011;55784;50.734;7.086;2023-06-14T10:42:06;5.53;;;1.83;;
68800;SDS011;55784;50.734;7.086;2023-06-14T10:44:33;6.97;;;2.10;;
68800;SDS011;55784;50.734;7.086;2023-06-14T10:47:04;5.70;;;2.40;;
68800;SDS011;55784;50.734;7.086;2023-06-14T10:49:42;6.18;;;2.35;;
68800;SDS011;55784;50.734;7.086;2023-06-14T10:52:13;6.72;;;1.98;;
68800;SDS011;55784;50.734;7.086;2023-06-14T10:54:56;8.07;;;2.70;;
68800;SDS011;55784;50.734;7.086;2023-06-14T10:57:29;4.93;;;2.00;;
68800;SDS011;55784;50.734;7.086;2023-06-14T10:59:56;6.63;;;2.00;;
68800;SDS011;55784;50.734;7.086;2023-06-14T11:05:06;5.20;;;1.83;;
68800;SDS011;55784;50.734;7.086;2023-06-14T11:13:05;5.47;;;2.05;;
68800;SDS011;55784;50.734;7.086;2023-06-14T11:15:32;6.70;;;2.00;;
68800;SDS011;55784;50.734;7.086;2023-06-14T11:18:04;5.97;;;2.00;;
68800;SDS011;55784;50.734;7.086;2023-06-14T11:20:35;6.75;;;2.90;;
68800;SDS011;55784;50.734;7.086;2023-06-14T11:23:01;6.20;;;2.20;;
68800;SDS011;55784;50.734;7.086;2023-06-14T11:25:27;5.65;;;2.00;;
68800;SDS011;55784;50.734;7.086;2023-06-14T11:27:55;6.10;;;2.40;;
68800;SDS011;55784;50.734;7.086;2023-06-14T11:30:22;5.90;;;2.10;;
68800;SDS011;55784;50.734;7.086;2023-06-14T11:32:51;5.25;;;2.10;;
68800;SDS011;55784;50.734;7.086;2023-06-14T11:35:18;5.47;;;2.10;;
68800;SDS011;55784;50.734;7.086;2023-06-14T11:37:48;6.40;;;2.17;;
68800;SDS011;55784;50.734;7.086;2023-06-14T11:40:13;6.45;;;2.40;;
68800;SDS011;55784;50.734;7.086;2023-06-14T11:42:40;7.10;;;3.10;;
68800;SDS011;55784;50.734;7.086;2023-06-14T11:45:09;6.20;;;3.00;;
68800;SDS011;55784;50.734;7.086;2023-06-14T11:47:36;9.23;;;2.20;;
68800;SDS011;55784;50.734;7.086;2023-06-14T11:50:03;6.55;;;2.40;;
68800;SDS011;55784;50.734;7.086;2023-06-14T11:52:34;6.40;;;2.40;;
68800;SDS011;55784;50.734;7.086;2023-06-14T11:55:01;5.43;;;1.88;;
68800;SDS011;55784;50.734;7.086;2023-06-14T11:57:30;6.43;;;2.00;;
68800;SDS011;55784;50.734;7.086;2023-06-14T11:59:55;6.63;;;2.47;;
68800;SDS011;55784;50.734;7.086;2023-06-14T12:02:21;5.20;;;1.92;;
68800;SDS011;55784;50.734;7.086;2023-06-14T12:04:47;4.67;;;1.73;;
68800;SDS011;55784;50.734;7.086;2023-06-14T12:07:16;6.00;;;1.80;;
68800;SDS011;55784;50.734;7.086;2023-06-14T12:12:22;5.22;;;1.70;;
68800;SDS011;55784;50.734;7.086;2023-06-14T12:14:50;4.87;;;1.50;;
68800;SDS011;55784;50.734;7.086;2023-06-14T12:17:16;4.80;;;1.50;;
68800;SDS011;55784;50.734;7.086;2023-06-14T12:19:45;6.43;;;2.30;;
68800;SDS011;55784;50.734;7.086;2023-06-14T12:22:11;5.45;;;1.60;;
68800;SDS011;55784;50.734;7.086;2023-06-14T12:24:37;5.70;;;1.57;;
68800;SDS011;55784;50.734;7.086;2023-06-14T12:27:03;5.00;;;1.80;;
68800;SDS011;55784;50.734;7.086;2023-06-14T12:29:29;7.30;;;1.67;;
68800;SDS011;55784;50.734;7.086;2023-06-14T12:32:04;4.20;;;1.47;;
68800;SDS011;55784;50.734;7.086;2023-06-14T12:34:30;5.80;;;1.65;;
68800;SDS011;55784;50.734;7.086;2023-06-14T12:36:56;4.68;;;1.50;;
68800;SDS011;55784;50.734;7.086;2023-06-14T12:39:22;7.07;;;2.40;;
68800;SDS011;55784;50.734;7.086;2023-06-14T12:41:48;7.07;;;1.77;;
68800;SDS011;55784;50.734;7.086;2023-06-14T12:44:14;4.90;;;1.70;;
68800;SDS011;55784;50.734;7.086;2023-06-14T12:46:41;6.10;;;2.00;;
68800;SDS011;55784;50.734;7.086;2023-06-14T12:49:08;5.65;;;1.80;;
68800;SDS011;55784;50.734;7.086;2023-06-14T12:51:34;6.55;;;2.05;;
68800;SDS011;55784;50.734;7.086;2023-06-14T12:53:59;7.00;;;2.37;;
68800;SDS011;55784;50.734;7.086;2023-06-14T12:56:25;5.23;;;1.63;;
68800;SDS011;55784;50.734;7.086;2023-06-14T12:58:51;4.72;;;1.70;;
68800;SDS011;55784;50.734;7.086;2023-06-14T13:01:16;5.60;;;1.80;;
68800;SDS011;55784;50.734;7.086;2023-06-14T13:03:42;6.50;;;2.20;;
68800;SDS011;55784;50.734;7.086;2023-06-14T13:06:07;7.07;;;2.07;;
68800;SDS011;55784;50.734;7.086;2023-06-14T13:08:33;6.80;;;2.57;;
68800;SDS011;55784;50.734;7.086;2023-06-14T13:10:58;7.83;;;4.10;;
68800;SDS011;55784;50.734;7.086;2023-06-14T13:18:28;5.25;;;2.00;;
68800;SDS011;55784;50.734;7.086;2023-06-14T13:35:27;11.57;;;5.38;;
68800;SDS011;55784;50.734;7.086;2023-06-14T14:41:36;7.80;;;2.70;;
68800;SDS011;55784;50.734;7.086;2023-06-14T14:51:26;6.60;;;2.17;;
68800;SDS011;55784;50.734;7.086;2023-06-14T16:09:16;7.38;;;3.10;;
68800;SDS011;55784;50.734;7.086;2023-06-14T16:14:37;7.30;;;2.85;;
68800;SDS011;55784;50.734;7.086;2023-06-14T16:17:03;9.20;;;2.80;;
68800;SDS011;55784;50.734;7.086;2023-06-14T16:19:28;7.17;;;3.40;;
68800;SDS011;55784;50.734;7.086;2023-06-14T16:25:40;9.23;;;4.53;;
68800;SDS011;55784;50.734;7.086;2023-06-14T16:28:05;8.05;;;3.78;;
68800;SDS011;55784;50.734;7.086;2023-06-14T16:30:37;7.00;;;3.10;;
68800;SDS011;55784;50.734;7.086;2023-06-14T16:33:16;6.38;;;2.80;;
68800;SDS011;55784;50.734;7.086;2023-06-14T16:35:41;7.57;;;2.97;;
68800;SDS011;55784;50.734;7.086;2023-06-14T16:38:09;5.50;;;2.70;;
68800;SDS011;55784;50.734;7.086;2023-06-14T16:46:43;8.80;;;2.95;;
68800;SDS011;55784;50.734;7.086;2023-06-14T16:49:35;5.97;;;3.00;;
68800;SDS011;55784;50.734;7.086;2023-06-14T16:52:00;7.68;;;3.60;;
68800;SDS011;55784;50.734;7.086;2023-06-14T17:07:30;13.00;;;5.47;;
68800;SDS011;55784;50.734;7.086;2023-06-14T17:09:58;9.13;;;4.47;;
68800;SDS011;55784;50.734;7.086;2023-06-14T17:20:12;7.60;;;3.22;;
68800;SDS011;55784;50.734;7.086;2023-06-14T17:26:43;12.02;;;5.88;;
68800;SDS011;55784;50.734;7.086;2023-06-14T17:29:24;11.75;;;4.40;;
68800;SDS011;55784;50.734;7.086;2023-06-14T17:31:54;9.47;;;4.83;;
68800;SDS011;55784;50.734;7.086;2023-06-14T17:35:03;9.25;;;4.55;;
68800;SDS011;55784;50.734;7.086;2023-06-14T17:38:23;7.88;;;3.42;;
68800;SDS011;55784;50.734;7.086;2023-06-14T17:48:08;14.27;;;7.47;;
68800;SDS011;55784;50.734;7.086;2023-06-14T17:51:10;11.27;;;5.03;;
68800;SDS011;55784;50.734;7.086;2023-06-14T17:53:39;6.93;;;3.50;;
68800;SDS011;55784;50.734;7.086;2023-06-14T17:56:19;6.63;;;3.00;;
68800;SDS011;55784;50.734;7.086;2023-06-14T17:59:13;5.72;;;3.00;;
68800;SDS011;55784;50.734;7.086;2023-06-14T18:01:55;7.57;;;4.00;;
68800;SDS011;55784;50.734;7.086;2023-06-14T18:04:20;9.90;;;4.73;;
68800;SDS011;55784;50.734;7.086;2023-06-14T18:06:45;18.35;;;8.38;;
68800;SDS011;55784;50.734;7.086;2023-06-14T18:09:11;24.43;;;11.13;;
68800;SDS011;55784;50.734;7.086;2023-06-14T18:11:36;18.00;;;7.70;;
68800;SDS011;55784;50.734;7.086;2023-06-14T18:14:01;6.37;;;3.40;;
68800;SDS011;55784;50.734;7.086;2023-06-14T18:16:27;19.43;;;8.97;;
68800;SDS011;55784;50.734;7.086;2023-06-14T18:18:52;6.60;;;3.30;;
68800;SDS011;55784;50.734;7.086;2023-06-14T18:21:18;8.32;;;4.05;;
68800;SDS011;55784;50.734;7.086;2023-06-14T18:23:45;11.23;;;4.85;;
68800;SDS011;55784;50.734;7.086;2023-06-14T18:26:16;5.97;;;2.95;;
68800;SDS011;55784;50.734;7.086;2023-06-14T18:28:42;6.63;;;3.13;;
68800;SDS011;55784;50.734;7.086;2023-06-14T18:31:07;6.97;;;3.60;;
68800;SDS011;55784;50.734;7.086;2023-06-14T18:33:32;6.70;;;2.97;;
68800;SDS011;55784;50.734;7.086;2023-06-14T18:35:58;6.27;;;3.10;;
68800;SDS011;55784;50.734;7.086;2023-06-14T18:38:23;6.90;;;3.50;;
68800;SDS011;55784;50.734;7.086;2023-06-14T18:40:50;5.90;;;3.10;;
68800;SDS011;55784;50.734;7.086;2023-06-14T18:43:16;6.22;;;3.10;;
68800;SDS011;55784;50.734;7.086;2023-06-14T18:45:42;6.78;;;3.20;;
68800;SDS011;55784;50.734;7.086;2023-06-14T18:48:08;6.93;;;3.07;;
68800;SDS011;55784;50.734;7.086;2023-06-14T18:50:33;7.27;;;3.17;;
68800;SDS011;55784;50.734;7.086;2023-06-14T18:52:59;6.90;;;3.50;;
68800;SDS011;55784;50.734;7.086;2023-06-14T18:55:24;6.03;;;3.10;;
68800;SDS011;55784;50.734;7.086;2023-06-14T18:57:50;6.57;;;2.80;;
68800;SDS011;55784;50.734;7.086;2023-06-14T19:00:15;6.83;;;2.97;;
68800;SDS011;55784;50.734;7.086;2023-06-14T19:02:41;6.23;;;3.20;;
68800;SDS011;55784;50.734;7.086;2023-06-14T19:05:08;5.57;;;2.87;;
68800;SDS011;55784;50.734;7.086;2023-06-14T19:07:33;5.60;;;2.80;;
68800;SDS011;55784;50.734;7.086;2023-06-14T19:09:58;7.37;;;3.40;;
68800;SDS011;55784;50.734;7.086;2023-06-14T19:12:24;5.97;;;3.10;;
68800;SDS011;55784;50.734;7.086;2023-06-14T19:14:49;7.40;;;3.40;;
68800;SDS011;55784;50.734;7.086;2023-06-14T19:17:14;41.72;;;9.02;;
68800;SDS011;55784;50.734;7.086;2023-06-14T19:19:43;23.03;;;5.87;;
68800;SDS011;55784;50.734;7.086;2023-06-14T19:22:10;8.00;;;3.45;;
68800;SDS011;55784;50.734;7.086;2023-06-14T19:24:35;7.60;;;3.00;;
68800;SDS011;55784;50.734;7.086;2023-06-14T19:27:01;8.20;;;3.40;;
68800;SDS011;55784;50.734;7.086;2023-06-14T19:29:26;7.22;;;3.10;;
68800;SDS011;55784;50.734;7.086;2023-06-14T19:31:51;6.33;;;3.00;;